createdAt,value
2023-12-16T00:02:09.206Z,4.69
2023-12-16T00:04:37.841Z,4.59
2023-12-16T00:07:05.279Z,4.73
2023-12-16T00:09:33.022Z,4.64
2023-12-16T00:12:00.702Z,4.77
2023-12-16T00:14:28.448Z,4.76
2023-12-16T00:16:55.493Z,4.71
2023-12-16T00:19:23.194Z,4.71
2023-12-16T00:21:50.342Z,4.79
2023-12-16T00:24:17.701Z,4.75
2023-12-16T00:26:45.045Z,4.88
2023-12-16T00:29:12.887Z,4.85
2023-12-16T00:31:40.735Z,4.70
2023-12-16T00:34:08.259Z,4.59
2023-12-16T00:36:35.302Z,4.64
2023-12-16T00:39:04.126Z,4.63
2023-12-16T00:41:31.150Z,4.63
2023-12-16T00:43:58.495Z,4.54
2023-12-16T00:46:25.649Z,4.60
2023-12-16T00:48:53.471Z,4.53
2023-12-16T00:51:21.368Z,4.43
2023-12-16T00:53:48.825Z,4.42
2023-12-16T00:56:16.022Z,4.52
2023-12-16T00:58:43.453Z,4.40
2023-12-16T01:01:13.645Z,4.46
2023-12-16T01:03:41.953Z,4.50
2023-12-16T01:06:09.125Z,4.54
2023-12-16T01:08:36.635Z,4.54
2023-12-16T01:11:03.833Z,4.61
2023-12-16T01:13:31.299Z,4.71
2023-12-16T01:15:58.527Z,4.61
2023-12-16T01:18:26.236Z,4.68
2023-12-16T01:20:53.429Z,4.60
2023-12-16T01:23:21.480Z,4.63
2023-12-16T01:25:48.968Z,4.68
2023-12-16T01:28:16.878Z,4.61
2023-12-16T01:30:44.072Z,4.62
2023-12-16T01:33:12.982Z,4.63
2023-12-16T01:35:40.146Z,4.58
2023-12-16T01:38:07.508Z,4.69
2023-12-16T01:40:34.660Z,4.70
2023-12-16T01:43:06.085Z,4.64
2023-12-16T01:45:33.334Z,4.60
2023-12-16T01:48:04.291Z,4.70
2023-12-16T01:50:32.335Z,4.63
2023-12-16T01:52:59.811Z,4.70
2023-12-16T01:55:27.653Z,4.68
2023-12-16T01:57:56.979Z,4.64
2023-12-16T02:00:30.208Z,4.66
2023-12-16T02:02:57.871Z,4.72
2023-12-16T02:05:25.030Z,4.68
2023-12-16T02:07:53.348Z,4.80
2023-12-16T02:10:20.494Z,4.76
2023-12-16T02:12:48.010Z,4.76
2023-12-16T02:15:15.410Z,4.77
2023-12-16T02:17:43.249Z,4.85
2023-12-16T02:20:11.401Z,4.85
2023-12-16T02:22:38.947Z,4.90
2023-12-16T02:25:10.855Z,4.85
2023-12-16T02:27:38.679Z,4.87
2023-12-16T02:30:06.683Z,4.86
2023-12-16T02:32:34.236Z,4.88
2023-12-16T02:35:01.306Z,4.92
2023-12-16T02:37:30.568Z,4.98
2023-12-16T02:39:57.660Z,4.92
2023-12-16T02:42:25.050Z,4.85
2023-12-16T02:44:52.113Z,4.96
2023-12-16T02:47:19.541Z,4.96
2023-12-16T02:49:46.705Z,4.99
2023-12-16T02:52:14.236Z,5.03
2023-12-16T02:54:41.284Z,5.06
2023-12-16T02:57:08.707Z,5.09
2023-12-16T02:59:35.776Z,5.05
2023-12-16T03:02:03.228Z,5.03
2023-12-16T03:04:30.290Z,5.20
2023-12-16T03:06:57.941Z,5.16
2023-12-16T03:09:25.205Z,5.20
2023-12-16T03:11:53.008Z,5.03
2023-12-16T03:14:20.174Z,5.12
2023-12-16T03:16:48.339Z,5.11
2023-12-16T03:19:15.434Z,5.10
2023-12-16T03:21:42.836Z,5.13
2023-12-16T03:24:11.737Z,5.09
2023-12-16T03:26:40.700Z,5.05
2023-12-16T03:29:07.824Z,5.16
2023-12-16T03:31:35.424Z,5.16
2023-12-16T03:34:02.628Z,5.05
2023-12-16T03:36:30.047Z,5.02
2023-12-16T03:38:57.792Z,5.02
2023-12-16T03:41:26.236Z,5.02
2023-12-16T03:43:53.234Z,5.00
2023-12-16T03:46:20.649Z,5.05
2023-12-16T03:48:48.018Z,4.99
2023-12-16T03:51:15.702Z,5.05
2023-12-16T03:53:42.739Z,5.17
2023-12-16T03:56:10.190Z,5.10
2023-12-16T03:58:37.320Z,5.14
2023-12-16T04:01:06.035Z,5.05
2023-12-16T04:03:33.301Z,5.09
2023-12-16T04:06:00.836Z,5.02
2023-12-16T04:08:27.886Z,5.16
2023-12-16T04:10:55.327Z,5.10
2023-12-16T04:13:22.403Z,5.09
2023-12-16T04:15:53.730Z,5.14
2023-12-16T04:18:21.093Z,5.10
2023-12-16T04:20:48.448Z,5.08
2023-12-16T04:23:15.712Z,5.16
2023-12-16T04:25:44.149Z,5.16
2023-12-16T04:28:11.240Z,5.15
2023-12-16T04:30:38.757Z,5.08
2023-12-16T04:33:05.921Z,5.20
2023-12-16T04:35:33.339Z,5.08
2023-12-16T04:38:00.464Z,5.05
2023-12-16T04:40:28.545Z,5.16
2023-12-16T04:42:55.788Z,5.07
2023-12-16T04:45:23.252Z,5.12
2023-12-16T04:47:50.387Z,5.16
2023-12-16T04:50:17.720Z,5.25
2023-12-16T04:52:45.056Z,5.23
2023-12-16T04:55:12.575Z,5.27
2023-12-16T04:57:40.194Z,5.21
2023-12-16T05:00:09.170Z,5.33
2023-12-16T05:02:36.341Z,5.22
2023-12-16T05:05:03.745Z,5.31
2023-12-16T05:07:31.055Z,5.25
2023-12-16T05:09:58.490Z,5.33
2023-12-16T05:12:35.263Z,5.32
2023-12-16T05:15:05.204Z,5.29
2023-12-16T05:17:32.381Z,5.36
2023-12-16T05:19:59.913Z,5.48
2023-12-16T05:22:27.193Z,5.18
2023-12-16T05:24:54.757Z,5.27
2023-12-16T05:27:21.756Z,5.31
2023-12-16T05:29:49.105Z,5.20
2023-12-16T05:32:16.333Z,5.25
2023-12-16T05:34:43.690Z,5.30
2023-12-16T05:37:10.945Z,5.36
2023-12-16T05:39:38.310Z,5.34
2023-12-16T05:42:05.531Z,5.39
2023-12-16T05:44:33.061Z,5.30
2023-12-16T05:47:00.192Z,5.28
2023-12-16T05:49:27.780Z,5.36
2023-12-16T05:51:57.976Z,5.39
2023-12-16T05:54:25.744Z,5.32
2023-12-16T05:56:52.770Z,5.36
2023-12-16T05:59:20.119Z,5.31
2023-12-16T06:01:47.229Z,5.31
2023-12-16T06:04:15.517Z,5.41
2023-12-16T06:06:43.059Z,5.36
2023-12-16T06:09:10.537Z,5.43
2023-12-16T06:11:37.556Z,5.42
2023-12-16T06:14:05.116Z,5.42
2023-12-16T06:16:32.300Z,5.33
2023-12-16T06:19:00.761Z,5.32
2023-12-16T06:21:27.835Z,5.46
2023-12-16T06:23:55.211Z,5.49
2023-12-16T06:26:22.339Z,5.47
2023-12-16T06:28:49.781Z,5.56
2023-12-16T06:31:17.782Z,5.56
2023-12-16T06:33:45.755Z,5.57
2023-12-16T06:36:13.333Z,5.56
2023-12-16T06:38:41.015Z,5.65
2023-12-16T06:41:08.086Z,5.57
2023-12-16T06:43:35.487Z,5.61
2023-12-16T06:46:02.586Z,5.54
2023-12-16T06:48:30.076Z,5.60
2023-12-16T06:50:59.129Z,5.54
2023-12-16T06:53:27.148Z,5.54
2023-12-16T06:55:54.442Z,5.52
2023-12-16T06:58:22.560Z,5.41
2023-12-16T07:00:50.051Z,5.47
2023-12-16T07:03:17.758Z,5.42
2023-12-16T07:05:45.204Z,5.37
2023-12-16T07:08:14.361Z,5.37
2023-12-16T07:10:41.877Z,5.32
2023-12-16T07:13:09.455Z,5.46
2023-12-16T07:15:36.543Z,5.46
2023-12-16T07:18:04.356Z,5.45
2023-12-16T07:20:32.692Z,5.54
2023-12-16T07:23:00.143Z,5.64
2023-12-16T07:25:27.853Z,5.62
2023-12-16T07:27:55.320Z,5.60
2023-12-16T07:30:22.547Z,5.66
2023-12-16T07:32:50.126Z,5.63
2023-12-16T07:35:17.379Z,5.66
2023-12-16T07:37:45.014Z,5.66
2023-12-16T07:40:12.704Z,5.74
2023-12-16T07:42:41.156Z,5.69
2023-12-16T07:45:09.636Z,5.67
2023-12-16T07:47:37.585Z,5.78
2023-12-16T07:50:05.276Z,5.74
2023-12-16T07:52:32.872Z,5.77
2023-12-16T07:55:00.083Z,5.74
2023-12-16T07:57:27.925Z,5.75
2023-12-16T07:59:55.052Z,5.79
2023-12-16T08:02:22.462Z,5.83
2023-12-16T08:04:50.859Z,5.84
2023-12-16T08:07:18.682Z,5.68
2023-12-16T08:09:45.817Z,5.81
2023-12-16T08:12:13.206Z,5.83
2023-12-16T08:14:40.368Z,5.89
2023-12-16T08:17:08.126Z,5.90
2023-12-16T08:19:35.495Z,5.98
2023-12-16T08:22:03.395Z,5.94
2023-12-16T08:24:30.851Z,5.99
2023-12-16T08:26:58.840Z,6.09
2023-12-16T08:29:25.828Z,6.13
2023-12-16T08:31:53.274Z,6.06
2023-12-16T08:34:21.202Z,6.08
2023-12-16T08:36:50.180Z,6.11
2023-12-16T08:39:17.608Z,6.14
2023-12-16T08:41:45.178Z,6.18
2023-12-16T08:44:12.293Z,6.23
2023-12-16T08:46:41.305Z,6.25
2023-12-16T08:49:09.049Z,6.12
2023-12-16T08:51:36.570Z,6.15
2023-12-16T08:54:03.744Z,6.21
2023-12-16T08:56:31.432Z,6.19
2023-12-16T08:58:58.463Z,6.30
2023-12-16T09:01:26.138Z,6.30
2023-12-16T09:03:53.317Z,6.35
2023-12-16T09:06:21.744Z,6.28
2023-12-16T09:08:48.968Z,6.32
2023-12-16T09:11:18.049Z,6.23
2023-12-16T09:13:45.365Z,6.30
2023-12-16T09:16:12.950Z,6.34
2023-12-16T09:18:40.192Z,6.25
2023-12-16T09:21:07.838Z,6.23
2023-12-16T09:23:35.947Z,6.33
2023-12-16T09:26:03.694Z,6.32
2023-12-16T09:28:30.910Z,6.33
2023-12-16T09:31:01.143Z,6.44
2023-12-16T09:33:28.416Z,6.31
2023-12-16T09:35:55.926Z,6.32
2023-12-16T09:38:23.018Z,6.36
2023-12-16T09:40:50.682Z,6.24
2023-12-16T09:43:18.377Z,6.20
2023-12-16T09:45:50.187Z,6.33
2023-12-16T09:48:18.691Z,6.27
2023-12-16T09:50:46.877Z,6.34
2023-12-16T09:53:14.259Z,6.29
2023-12-16T09:55:43.116Z,6.33
2023-12-16T09:58:16.451Z,6.45
2023-12-16T10:00:47.942Z,6.26
2023-12-16T10:03:18.172Z,6.40
2023-12-16T10:05:47.658Z,6.50
2023-12-16T10:08:15.018Z,6.66
2023-12-16T10:10:51.119Z,6.33
2023-12-16T10:13:22.129Z,6.22
2023-12-16T10:15:49.479Z,6.21
2023-12-16T10:18:17.205Z,6.29
2023-12-16T10:20:44.654Z,6.35
2023-12-16T10:23:13.925Z,6.16
2023-12-16T10:25:45.042Z,6.30
2023-12-16T10:28:12.161Z,6.14
2023-12-16T10:30:39.648Z,6.02
2023-12-16T10:33:10.226Z,6.08
2023-12-16T10:35:38.952Z,6.24
2023-12-16T10:38:07.722Z,6.22
2023-12-16T10:40:36.244Z,6.20
2023-12-16T10:43:04.649Z,6.24
2023-12-16T10:45:32.309Z,6.38
2023-12-16T10:48:03.837Z,6.43
2023-12-16T10:50:32.564Z,6.29
2023-12-16T10:53:03.447Z,6.27
2023-12-16T10:55:36.235Z,6.19
2023-12-16T10:58:27.591Z,6.41
2023-12-16T11:01:06.594Z,6.43
2023-12-16T11:04:03.165Z,6.31
2023-12-16T11:06:42.826Z,6.29
2023-12-16T11:09:11.265Z,6.25
2023-12-16T11:11:41.352Z,6.29
2023-12-16T11:14:09.698Z,6.57
2023-12-16T11:16:55.682Z,6.31
2023-12-16T11:19:26.825Z,6.41
2023-12-16T11:21:54.361Z,6.51
2023-12-16T11:24:21.493Z,6.53
2023-12-16T11:26:55.722Z,6.39
2023-12-16T11:29:25.954Z,6.43
2023-12-16T11:31:59.370Z,6.49
2023-12-16T11:34:45.093Z,6.42
2023-12-16T11:37:13.296Z,6.54
2023-12-16T11:39:41.882Z,6.43
2023-12-16T11:42:11.504Z,6.52
2023-12-16T11:44:52.419Z,6.61
2023-12-16T11:47:24.738Z,6.45
2023-12-16T11:49:53.541Z,6.62
2023-12-16T11:52:23.719Z,6.44
2023-12-16T11:54:59.882Z,6.72
2023-12-16T11:57:30.985Z,6.55
2023-12-16T11:59:58.593Z,6.63
2023-12-16T12:02:26.247Z,6.65
2023-12-16T12:04:53.550Z,6.64
2023-12-16T12:07:21.182Z,6.69
2023-12-16T12:09:48.389Z,6.72
2023-12-16T12:12:15.787Z,6.79
2023-12-16T12:14:47.371Z,6.71
2023-12-16T12:17:18.033Z,6.94
2023-12-16T12:19:45.550Z,6.80
2023-12-16T12:22:13.093Z,6.70
2023-12-16T12:24:40.710Z,6.74
2023-12-16T12:27:08.407Z,6.62
2023-12-16T12:29:54.935Z,6.66
2023-12-16T12:32:23.875Z,6.62
2023-12-16T12:35:07.756Z,6.62
2023-12-16T12:37:37.491Z,6.62
2023-12-16T12:40:09.725Z,6.58
2023-12-16T12:42:47.006Z,6.69
2023-12-16T12:45:37.264Z,6.55
2023-12-16T12:48:15.410Z,6.58
2023-12-16T12:50:48.565Z,6.65
2023-12-16T12:53:24.241Z,6.58
2023-12-16T12:55:55.796Z,6.54
2023-12-16T12:58:29.106Z,6.59
2023-12-16T13:01:02.839Z,6.53
2023-12-16T13:03:32.957Z,6.56
2023-12-16T13:06:03.525Z,6.59
2023-12-16T13:08:34.355Z,6.59
2023-12-16T13:11:01.548Z,6.58
2023-12-16T13:13:29.219Z,6.70
2023-12-16T13:15:57.768Z,6.69
2023-12-16T13:18:28.023Z,6.65
2023-12-16T13:20:58.189Z,6.57
2023-12-16T13:23:27.281Z,6.69
2023-12-16T13:25:55.617Z,6.65
2023-12-16T13:28:23.692Z,6.58
2023-12-16T13:30:53.141Z,6.68
2023-12-16T13:33:22.113Z,6.59
2023-12-16T13:35:53.167Z,6.56
2023-12-16T13:38:20.639Z,6.55
2023-12-16T13:40:52.206Z,6.47
2023-12-16T13:43:22.074Z,6.50
2023-12-16T13:45:51.228Z,6.55
2023-12-16T13:48:19.430Z,6.44
2023-12-16T13:50:46.595Z,6.42
2023-12-16T13:53:14.285Z,6.40
2023-12-16T13:55:42.408Z,6.36
2023-12-16T13:58:10.124Z,6.24
2023-12-16T14:00:37.318Z,6.31
2023-12-16T14:03:04.884Z,6.24
2023-12-16T14:05:32.246Z,6.37
2023-12-16T14:07:59.693Z,6.31
2023-12-16T14:10:26.842Z,6.33
2023-12-16T14:12:54.266Z,6.25
2023-12-16T14:15:21.370Z,6.17
2023-12-16T14:17:48.990Z,6.26
2023-12-16T14:20:16.256Z,6.21
2023-12-16T14:22:43.804Z,6.14
2023-12-16T14:25:11.659Z,6.33
2023-12-16T14:27:39.414Z,6.24
2023-12-16T14:30:08.125Z,6.22
2023-12-16T14:32:36.004Z,6.25
2023-12-16T14:35:05.715Z,6.26
2023-12-16T14:37:33.147Z,6.10
2023-12-16T14:40:01.627Z,6.22
2023-12-16T14:42:30.362Z,6.18
2023-12-16T14:44:57.566Z,6.13
2023-12-16T14:47:25.213Z,6.18
2023-12-16T14:49:56.000Z,6.15
2023-12-16T14:52:23.474Z,6.13
2023-12-16T14:54:50.605Z,6.14
2023-12-16T14:57:18.197Z,6.03
2023-12-16T14:59:45.730Z,6.07
2023-12-16T15:02:14.578Z,6.04
2023-12-16T15:04:41.721Z,6.03
2023-12-16T15:07:11.056Z,5.98
2023-12-16T15:09:38.414Z,5.93
2023-12-16T15:12:06.525Z,6.01
2023-12-16T15:14:33.769Z,6.04
2023-12-16T15:17:01.171Z,5.95
2023-12-16T15:19:28.475Z,5.89
2023-12-16T15:22:05.590Z,5.92
2023-12-16T15:24:33.199Z,5.85
2023-12-16T15:27:00.453Z,5.77
2023-12-16T15:29:28.226Z,5.78
2023-12-16T15:31:57.061Z,5.66
2023-12-16T15:34:26.310Z,5.59
2023-12-16T15:37:00.507Z,5.62
2023-12-16T15:39:35.951Z,5.66
2023-12-16T15:42:04.315Z,5.56
2023-12-16T15:44:31.922Z,5.52
2023-12-16T15:46:59.001Z,5.52
2023-12-16T15:49:27.660Z,5.34
2023-12-16T15:51:56.572Z,5.48
2023-12-16T15:54:24.050Z,5.49
2023-12-16T15:56:51.290Z,5.29
2023-12-16T15:59:18.783Z,5.32
2023-12-16T16:01:45.791Z,5.29
2023-12-16T16:04:13.421Z,5.41
2023-12-16T16:06:40.639Z,5.35
2023-12-16T16:09:08.140Z,5.54
2023-12-16T16:11:35.551Z,5.36
2023-12-16T16:14:03.040Z,5.44
2023-12-16T16:16:30.861Z,5.50
2023-12-16T16:18:58.583Z,5.48
2023-12-16T16:21:26.737Z,5.50
2023-12-16T16:23:54.808Z,5.53
2023-12-16T16:26:26.528Z,5.52
2023-12-16T16:28:54.274Z,5.48
2023-12-16T16:31:23.582Z,5.57
2023-12-16T16:33:51.422Z,5.57
2023-12-16T16:36:19.006Z,5.47
2023-12-16T16:38:46.387Z,5.67
2023-12-16T16:41:16.549Z,5.51
2023-12-16T16:43:44.938Z,5.58
2023-12-16T16:46:12.158Z,5.60
2023-12-16T16:48:39.687Z,5.58
2023-12-16T16:51:07.050Z,5.65
2023-12-16T16:53:36.080Z,5.71
2023-12-16T16:56:04.858Z,5.66
2023-12-16T16:58:32.240Z,5.74
2023-12-16T17:00:59.315Z,5.74
2023-12-16T17:03:26.967Z,5.76
2023-12-16T17:05:54.132Z,5.69
2023-12-16T17:08:21.574Z,5.81
2023-12-16T17:10:48.885Z,5.76
2023-12-16T17:13:15.967Z,5.73
2023-12-16T17:15:43.268Z,5.93
2023-12-16T17:18:12.712Z,5.64
2023-12-16T17:20:40.109Z,5.67
2023-12-16T17:23:07.221Z,5.80
2023-12-16T17:25:34.626Z,5.79
2023-12-16T17:28:01.820Z,5.88
2023-12-16T17:30:29.452Z,5.78
2023-12-16T17:32:56.761Z,5.85
2023-12-16T17:35:24.260Z,6.21
2023-12-16T17:37:51.750Z,6.17
2023-12-16T17:40:19.223Z,6.07
2023-12-16T17:42:46.549Z,5.97
2023-12-16T17:45:14.643Z,5.99
2023-12-16T17:47:42.177Z,5.88
2023-12-16T17:50:10.039Z,5.96
2023-12-16T17:52:37.197Z,6.00
2023-12-16T17:55:05.013Z,5.94
2023-12-16T17:57:32.468Z,6.01
2023-12-16T17:59:59.893Z,5.98
2023-12-16T18:02:27.153Z,6.03
2023-12-16T18:04:54.520Z,6.08
2023-12-16T18:07:24.549Z,6.01
2023-12-16T18:09:52.031Z,6.04
2023-12-16T18:12:19.562Z,6.00
2023-12-16T18:14:47.455Z,6.07
2023-12-16T18:17:14.548Z,6.20
2023-12-16T18:19:41.990Z,6.00
2023-12-16T18:22:09.089Z,6.21
2023-12-16T18:24:36.509Z,6.12
2023-12-16T18:27:03.806Z,6.10
2023-12-16T18:29:31.559Z,6.19
2023-12-16T18:31:58.711Z,6.16
2023-12-16T18:34:26.161Z,6.13
2023-12-16T18:36:53.354Z,6.23
2023-12-16T18:39:20.967Z,6.36
2023-12-16T18:41:48.126Z,6.20
2023-12-16T18:44:16.553Z,6.29
2023-12-16T18:46:44.151Z,6.48
2023-12-16T18:49:11.740Z,6.35
2023-12-16T18:51:38.875Z,6.34
2023-12-16T18:54:07.608Z,6.36
2023-12-16T18:56:34.739Z,6.30
2023-12-16T18:59:02.158Z,6.37
2023-12-16T19:01:29.228Z,6.28
2023-12-16T19:03:56.714Z,6.35
2023-12-16T19:06:24.266Z,6.32
2023-12-16T19:08:51.829Z,6.34
2023-12-16T19:11:19.471Z,6.34
2023-12-16T19:13:47.040Z,6.24
2023-12-16T19:16:14.070Z,6.28
2023-12-16T19:18:41.703Z,6.38
2023-12-16T19:21:09.086Z,6.29
2023-12-16T19:23:36.714Z,6.29
2023-12-16T19:26:04.025Z,6.35
2023-12-16T19:28:31.665Z,6.53
2023-12-16T19:30:58.875Z,6.50
2023-12-16T19:33:26.490Z,6.63
2023-12-16T19:35:53.746Z,6.57
2023-12-16T19:38:21.146Z,6.73
2023-12-16T19:40:48.145Z,6.51
2023-12-16T19:43:15.559Z,6.65
2023-12-16T19:45:43.501Z,6.64
2023-12-16T19:48:10.957Z,6.68
2023-12-16T19:50:38.074Z,6.63
2023-12-16T19:53:05.739Z,6.64
2023-12-16T19:55:32.947Z,6.66
2023-12-16T19:58:00.460Z,6.62
2023-12-16T20:00:27.674Z,6.57
2023-12-16T20:02:55.403Z,6.49
2023-12-16T20:05:22.696Z,6.59
2023-12-16T20:07:50.177Z,6.69
2023-12-16T20:10:17.265Z,6.64
2023-12-16T20:12:44.721Z,6.77
2023-12-16T20:15:12.023Z,6.80
2023-12-16T20:17:41.482Z,6.71
2023-12-16T20:20:10.967Z,6.82
2023-12-16T20:22:38.396Z,6.88
2023-12-16T20:25:06.213Z,6.53
2023-12-16T20:27:33.657Z,6.70
2023-12-16T20:30:00.818Z,7.05
2023-12-16T20:32:28.227Z,6.96
2023-12-16T20:34:55.548Z,6.98
2023-12-16T20:37:25.084Z,7.26
2023-12-16T20:40:10.708Z,7.15
2023-12-16T20:42:42.582Z,7.20
2023-12-16T20:45:10.417Z,7.31
2023-12-16T20:47:39.194Z,7.32
2023-12-16T20:50:09.721Z,7.27
2023-12-16T20:52:38.255Z,7.27
2023-12-16T20:55:05.742Z,7.33
2023-12-16T20:57:34.971Z,7.15
2023-12-16T21:00:02.052Z,7.19
2023-12-16T21:02:31.116Z,7.08
2023-12-16T21:04:58.136Z,7.26
2023-12-16T21:07:25.711Z,7.22
2023-12-16T21:09:52.795Z,7.39
2023-12-16T21:12:22.367Z,7.27
2023-12-16T21:14:49.657Z,7.38
2023-12-16T21:17:19.487Z,7.40
2023-12-16T21:19:46.657Z,7.46
2023-12-16T21:22:17.206Z,7.32
2023-12-16T21:24:45.528Z,7.52
2023-12-16T21:27:13.992Z,7.45
2023-12-16T21:29:42.681Z,7.41
2023-12-16T21:32:14.854Z,7.47
2023-12-16T21:34:42.652Z,7.55
2023-12-16T21:37:10.705Z,7.61
2023-12-16T21:39:38.509Z,7.41
2023-12-16T21:42:09.193Z,7.39
2023-12-16T21:44:37.007Z,7.55
2023-12-16T21:47:04.585Z,7.40
2023-12-16T21:49:32.071Z,7.45
2023-12-16T21:51:59.599Z,7.45
2023-12-16T21:54:26.808Z,7.62
2023-12-16T21:56:54.371Z,7.31
2023-12-16T21:59:21.601Z,7.45
2023-12-16T22:01:49.097Z,7.33
2023-12-16T22:04:16.698Z,7.37
2023-12-16T22:06:44.112Z,7.36
2023-12-16T22:09:11.286Z,7.16
2023-12-16T22:11:38.734Z,7.18
2023-12-16T22:14:05.880Z,7.19
2023-12-16T22:16:33.269Z,7.21
2023-12-16T22:19:00.580Z,7.23
2023-12-16T22:21:28.012Z,7.15
2023-12-16T22:23:55.235Z,7.13
2023-12-16T22:26:22.617Z,7.16
2023-12-16T22:28:49.756Z,7.15
2023-12-16T22:31:17.255Z,7.15
2023-12-16T22:33:45.683Z,7.06
2023-12-16T22:36:17.718Z,6.99
2023-12-16T22:38:44.923Z,7.02
2023-12-16T22:41:12.726Z,7.13
2023-12-16T22:43:39.802Z,7.06
2023-12-16T22:46:14.749Z,7.20
2023-12-16T22:48:42.081Z,7.01
2023-12-16T22:51:10.356Z,7.23
2023-12-16T22:53:37.656Z,7.23
2023-12-16T22:56:05.479Z,7.22
2023-12-16T22:58:37.409Z,7.16
2023-12-16T23:01:09.389Z,7.32
2023-12-16T23:03:37.143Z,7.24
2023-12-16T23:06:05.260Z,7.21
2023-12-16T23:08:33.157Z,7.22
2023-12-16T23:11:00.448Z,7.25
2023-12-16T23:13:27.492Z,7.24
2023-12-16T23:15:55.046Z,7.28
2023-12-16T23:18:22.138Z,7.39
2023-12-16T23:20:49.727Z,7.27
2023-12-16T23:23:16.889Z,7.25
2023-12-16T23:25:44.838Z,7.44
2023-12-16T23:28:12.065Z,7.35
2023-12-16T23:30:39.511Z,7.32
2023-12-16T23:33:06.861Z,7.41
2023-12-16T23:35:34.723Z,7.25
2023-12-16T23:38:01.814Z,7.34
2023-12-16T23:40:29.220Z,7.32
2023-12-16T23:42:56.262Z,7.39
2023-12-16T23:45:23.843Z,7.47
2023-12-16T23:47:50.974Z,7.54
2023-12-16T23:50:18.530Z,7.63
2023-12-16T23:52:45.606Z,7.51
2023-12-16T23:55:13.208Z,7.43
2023-12-16T23:57:40.757Z,7.44
